Time;durP1;ratioP1;P1;durP2;ratioP2;P2;SDS_P1;SDS_P2;PMS_P1;PMS_P2;Temp;Humidity;BMP_temperature;BMP_pressure;BME280_temperature;BME280_humidity;BME280_pressure;Samples;Min_cycle;Max_cycle;Signal;HPM_P1;HPM_P2
2022/08/29 00:02:19;;;;;;;;;;;;;;;22.92;60.42;99578.03;4444468;32;20044;-94
2022/08/29 00:04:44;;;;;;;;;;;;;;;22.88;60.42;99577.44;4455395;32;19989;-95
2022/08/29 00:07:13;;;;;;;;;;;;;;;22.92;60.42;99578.88;4444826;32;19977;-94
2022/08/29 00:09:38;;;;;;;;;;;;;;;22.93;60.42;99577.88;4444863;32;20040;-93
2022/08/29 00:12:03;;;;;;;;;;;;;;;22.93;60.42;99585.00;4442108;32;20003;-94
2022/08/29 00:14:29;;;;;;;;;;;;;;;22.95;60.42;99578.62;4442413;32;20033;-93
2022/08/29 00:16:54;;;;;;;;;;;;;;;22.76;60.41;99581.13;4442104;32;19981;-95
2022/08/29 00:19:19;;;;;;;;;;;;;;;22.73;60.42;99577.91;4443311;32;20227;-93
2022/08/29 00:21:44;;;;;;;;;;;;;;;22.69;60.41;99574.66;4442488;32;20004;-95
2022/08/29 00:24:10;;;;;;;;;;;;;;;22.65;60.41;99583.84;4438884;32;20003;-93
2022/08/29 00:26:35;;;;;;;;;;;;;;;22.66;60.41;99578.41;4441521;32;19977;-93
2022/08/29 00:29:00;;;;;;;;;;;;;;;22.71;60.41;99583.31;4441248;32;22783;-94
2022/08/29 00:31:26;;;;;;;;;;;;;;;22.78;60.41;99589.81;4444363;32;20000;-93
2022/08/29 00:33:51;;;;;;;;;;;;;;;22.83;60.41;99586.78;4438039;32;20009;-92
2022/08/29 00:36:16;;;;;;;;;;;;;;;22.68;60.41;99586.22;4429100;32;20007;-92
2022/08/29 00:38:42;;;;;;;;;;;;;;;22.67;60.41;99588.03;4429129;32;20284;-94
2022/08/29 00:41:07;;;;;;;;;;;;;;;22.59;60.40;99584.38;4441213;32;19985;-91
2022/08/29 00:43:33;;;;;;;;;;;;;;;22.56;60.39;99587.28;4441807;32;19997;-91
2022/08/29 00:46:18;;;;;;;;;;;;;;;22.65;60.41;99597.94;4442970;32;20028;-91
2022/08/29 00:48:50;;;;;;;;;;;;;;;22.58;60.41;99594.12;4442919;32;20016;-93
2022/08/29 00:51:16;;;;;;;;;;;;;;;22.57;60.41;99594.28;4430284;32;19989;-92
2022/08/29 00:53:42;;;;;;;;;;;;;;;22.55;60.40;99591.75;4430649;32;20007;-94
2022/08/29 00:56:07;;;;;;;;;;;;;;;22.56;60.39;99590.78;4430151;32;19973;-92
2022/08/29 00:58:59;;;;;;;;;;;;;;;22.46;60.39;99591.66;4442930;32;19996;-92
2022/08/29 01:01:24;;;;;;;;;;;;;;;22.55;60.40;99602.38;4440467;32;20005;-91
2022/08/29 01:03:49;;;;;;;;;;;;;;;22.49;60.40;99600.22;4429780;32;20325;-92
2022/08/29 01:06:15;;;;;;;;;;;;;;;22.42;60.40;99604.34;4442202;32;19977;-89
2022/08/29 01:08:40;;;;;;;;;;;;;;;22.32;60.38;99604.28;4429301;32;19981;-90
2022/08/29 01:13:49;;;;;;;;;;;;;;;22.24;60.38;99603.22;4444563;32;19995;-91
2022/08/29 01:16:15;;;;;;;;;;;;;;;22.32;60.38;99603.44;4429554;32;19977;-91
2022/08/29 01:18:44;;;;;;;;;;;;;;;22.27;60.39;99595.03;4429442;32;20008;-91
2022/08/29 01:21:15;;;;;;;;;;;;;;;22.28;60.39;99600.19;4429794;32;20004;-91
2022/08/29 01:23:42;;;;;;;;;;;;;;;22.27;60.39;99601.16;4443309;32;19993;-92
2022/08/29 01:26:09;;;;;;;;;;;;;;;22.27;60.39;99598.53;4430535;32;20127;-92
2022/08/29 01:28:36;;;;;;;;;;;;;;;22.28;60.39;99608.16;4431427;32;20026;-92
2022/08/29 01:31:03;;;;;;;;;;;;;;;22.20;60.38;99607.09;4432560;32;19965;-92
2022/08/29 01:33:48;;;;;;;;;;;;;;;22.03;60.38;99605.81;4440028;32;19953;-90
2022/08/29 01:36:19;;;;;;;;;;;;;;;22.23;60.38;99610.31;4464005;32;19988;-92
2022/08/29 01:38:44;;;;;;;;;;;;;;;22.17;60.38;99615.28;4430877;32;19985;-92
2022/08/29 01:41:10;;;;;;;;;;;;;;;22.07;60.37;99620.53;4430124;32;20008;-92
2022/08/29 01:43:40;;;;;;;;;;;;;;;21.91;60.36;99612.94;4430104;32;20026;-92
2022/08/29 01:46:05;;;;;;;;;;;;;;;21.96;60.37;99612.56;4429910;32;19981;-91
2022/08/29 01:48:35;;;;;;;;;;;;;;;21.88;60.36;99612.34;4429648;32;20028;-92
2022/08/29 01:51:00;;;;;;;;;;;;;;;21.95;60.36;99608.22;4430115;32;19978;-92
2022/08/29 01:53:26;;;;;;;;;;;;;;;22.00;60.37;99606.03;4429599;32;20007;-93
2022/08/29 01:55:51;;;;;;;;;;;;;;;22.06;60.37;99602.94;4428745;32;21597;-90
2022/08/29 01:58:16;;;;;;;;;;;;;;;22.08;60.37;99614.25;4429863;32;19977;-93
2022/08/29 02:00:41;;;;;;;;;;;;;;;21.90;60.37;99613.06;4429714;32;20333;-91
2022/08/29 02:03:06;;;;;;;;;;;;;;;21.83;60.36;99612.72;4428963;32;21196;-91
2022/08/29 02:05:32;;;;;;;;;;;;;;;21.84;60.36;99616.22;4429505;32;20012;-93
2022/08/29 02:07:57;;;;;;;;;;;;;;;21.84;60.36;99613.56;4429773;32;19991;-92
2022/08/29 02:10:22;;;;;;;;;;;;;;;21.91;60.36;99618.22;4429916;32;20025;-92
2022/08/29 02:12:48;;;;;;;;;;;;;;;21.89;60.36;99616.69;4429620;32;20012;-91
2022/08/29 02:15:13;;;;;;;;;;;;;;;21.84;60.36;99614.41;4429302;32;19981;-91
2022/08/29 02:17:38;;;;;;;;;;;;;;;21.79;60.35;99613.09;4442810;32;19989;-93
2022/08/29 02:20:06;;;;;;;;;;;;;;;21.85;60.36;99604.66;4429653;32;20007;-91
2022/08/29 02:22:32;;;;;;;;;;;;;;;21.82;60.37;99600.44;4430070;32;19992;-94
2022/08/29 02:24:57;;;;;;;;;;;;;;;21.78;60.36;99608.75;4430325;32;20243;-92
2022/08/29 02:27:22;;;;;;;;;;;;;;;21.80;60.36;99597.06;4430617;32;19977;-94
2022/08/29 02:29:47;;;;;;;;;;;;;;;21.80;60.36;99601.53;4429589;32;24879;-93
2022/08/29 02:32:13;;;;;;;;;;;;;;;21.84;60.36;99595.84;4430084;32;20000;-92
2022/08/29 02:34:38;;;;;;;;;;;;;;;21.65;60.36;99591.19;4429562;32;19987;-92
2022/08/29 02:37:04;;;;;;;;;;;;;;;21.57;60.35;99588.31;4429894;32;19981;-92
2022/08/29 02:39:29;;;;;;;;;;;;;;;21.45;60.34;99590.13;4429572;32;20000;-93
2022/08/29 02:41:54;;;;;;;;;;;;;;;21.58;60.35;99582.06;4429860;32;20360;-92
2022/08/29 02:44:20;;;;;;;;;;;;;;;21.44;60.34;99583.16;4429750;32;20563;-92
2022/08/29 02:46:45;;;;;;;;;;;;;;;21.43;60.34;99591.22;4442397;32;20021;-92
2022/08/29 02:49:10;;;;;;;;;;;;;;;21.50;60.34;99597.69;4429007;32;19988;-92
2022/08/29 02:51:36;;;;;;;;;;;;;;;21.46;60.34;99588.31;4441607;32;19985;-89
2022/08/29 02:54:01;;;;;;;;;;;;;;;21.47;60.33;99589.16;4428910;32;19993;-91
2022/08/29 02:56:26;;;;;;;;;;;;;;;21.43;60.34;99589.41;4429307;32;19993;-90
2022/08/29 02:58:51;;;;;;;;;;;;;;;21.53;60.34;99592.19;4441878;32;23940;-90
2022/08/29 03:01:17;;;;;;;;;;;;;;;21.43;60.34;99602.66;4429132;32;20001;-90
2022/08/29 03:03:42;;;;;;;;;;;;;;;21.37;60.33;99602.31;4457436;32;20643;-91
2022/08/29 03:06:08;;;;;;;;;;;;;;;21.39;60.33;99603.88;4429592;32;19989;-92
2022/08/29 03:08:33;;;;;;;;;;;;;;;21.42;60.34;99590.37;4432237;32;20048;-91
2022/08/29 03:10:58;;;;;;;;;;;;;;;21.37;60.34;99599.66;4443327;32;20008;-91
2022/08/29 03:13:23;;;;;;;;;;;;;;;21.46;60.34;99604.22;4434901;32;20266;-91
2022/08/29 03:15:49;;;;;;;;;;;;;;;21.41;60.33;99601.09;4441907;32;19999;-90
2022/08/29 03:18:14;;;;;;;;;;;;;;;21.34;60.33;99603.38;4441679;32;20007;-90
2022/08/29 03:20:40;;;;;;;;;;;;;;;21.33;60.34;99609.66;4442563;32;20333;-93
2022/08/29 03:23:08;;;;;;;;;;;;;;;21.25;60.32;99611.19;4430127;32;20263;-93
2022/08/29 03:25:33;;;;;;;;;;;;;;;21.19;60.33;99609.00;4430070;32;20022;-95
2022/08/29 03:27:59;;;;;;;;;;;;;;;21.24;60.32;99620.09;4443020;32;19981;-93
2022/08/29 03:30:24;;;;;;;;;;;;;;;21.20;60.33;99627.41;4429909;32;20687;-94
2022/08/29 03:32:49;;;;;;;;;;;;;;;21.26;60.33;99618.16;4429833;32;20003;-93
2022/08/29 03:35:16;;;;;;;;;;;;;;;21.31;60.33;99623.97;4429493;32;19993;-93
2022/08/29 03:37:42;;;;;;;;;;;;;;;21.10;60.32;99632.59;4430259;32;20377;-94
2022/08/29 03:40:07;;;;;;;;;;;;;;;21.14;60.32;99628.75;4429786;32;20008;-93
2022/08/29 03:42:33;;;;;;;;;;;;;;;21.12;60.32;99632.47;4429653;32;20007;-93
2022/08/29 03:45:00;;;;;;;;;;;;;;;21.12;60.32;99635.94;4429328;32;19981;-92
2022/08/29 03:47:26;;;;;;;;;;;;;;;21.14;60.32;99639.31;4442330;32;19986;-92
2022/08/29 03:49:51;;;;;;;;;;;;;;;21.18;60.33;99634.63;4428756;32;20094;-92
2022/08/29 03:52:16;;;;;;;;;;;;;;;21.09;60.31;99643.28;4428256;32;20353;-90
2022/08/29 03:54:41;;;;;;;;;;;;;;;20.90;60.30;99643.00;4441169;32;20307;-90
2022/08/29 03:57:07;;;;;;;;;;;;;;;20.83;60.30;99645.28;4428703;32;20321;-93
2022/08/29 03:59:32;;;;;;;;;;;;;;;20.91;60.31;99650.84;4441760;32;20126;-93
2022/08/29 04:01:57;;;;;;;;;;;;;;;20.86;60.30;99660.94;4429643;32;19985;-94
2022/08/29 04:07:07;;;;;;;;;;;;;;;20.98;60.31;99665.28;4443899;32;19995;-92
2022/08/29 04:09:32;;;;;;;;;;;;;;;20.91;60.31;99664.06;4428483;32;19997;-92
2022/08/29 04:11:58;;;;;;;;;;;;;;;20.88;60.31;99664.31;4427778;32;26747;-93
2022/08/29 04:14:25;;;;;;;;;;;;;;;20.79;60.31;99665.81;4427417;32;32608;-91
2022/08/29 04:16:50;;;;;;;;;;;;;;;20.95;60.32;99664.66;4441248;32;20038;-90
2022/08/29 04:19:16;;;;;;;;;;;;;;;20.80;60.31;99661.38;4430020;32;20586;-90
2022/08/29 04:21:41;;;;;;;;;;;;;;;20.93;60.31;99667.44;4430282;32;19996;-90
2022/08/29 04:24:11;;;;;;;;;;;;;;;20.87;60.31;99662.62;4430120;32;27460;-91
2022/08/29 04:26:37;;;;;;;;;;;;;;;20.88;60.31;99668.75;4430455;32;20012;-91
2022/08/29 04:29:02;;;;;;;;;;;;;;;20.83;60.30;99663.81;4429995;32;20394;-90
2022/08/29 04:31:28;;;;;;;;;;;;;;;20.82;60.30;99670.06;4429959;32;19979;-91
2022/08/29 04:33:53;;;;;;;;;;;;;;;20.97;60.31;99665.37;4430173;32;20023;-91
2022/08/29 04:36:18;;;;;;;;;;;;;;;20.94;60.31;99673.56;4443766;32;19993;-91
2022/08/29 04:38:43;;;;;;;;;;;;;;;21.00;60.31;99684.53;4431271;32;20353;-91
2022/08/29 04:41:09;;;;;;;;;;;;;;;21.01;60.31;99680.91;4431535;32;26396;-92
2022/08/29 04:43:34;;;;;;;;;;;;;;;21.10;60.32;99680.22;4432991;32;19981;-91
2022/08/29 04:46:00;;;;;;;;;;;;;;;20.99;60.31;99679.34;4450454;32;19961;-91
2022/08/29 04:48:26;;;;;;;;;;;;;;;21.08;60.31;99676.00;4440457;32;20271;-91
2022/08/29 04:50:57;;;;;;;;;;;;;;;21.21;60.32;99671.44;4444959;32;19981;-90
2022/08/29 04:53:23;;;;;;;;;;;;;;;21.11;60.32;99676.62;4430203;32;20346;-92
2022/08/29 04:55:56;;;;;;;;;;;;;;;21.13;60.32;99681.78;4443389;32;19972;-93
2022/08/29 04:58:22;;;;;;;;;;;;;;;21.19;60.33;99680.47;4430811;32;20004;-91
2022/08/29 05:00:48;;;;;;;;;;;;;;;21.09;60.32;99683.84;4431730;32;20036;-94
2022/08/29 05:03:16;;;;;;;;;;;;;;;21.23;60.32;99681.91;4432398;32;20133;-94
2022/08/29 05:05:41;;;;;;;;;;;;;;;21.26;60.33;99679.06;4433752;32;19985;-94
2022/08/29 05:08:15;;;;;;;;;;;;;;;21.40;60.33;99681.50;4431789;32;20030;-94
2022/08/29 05:10:43;;;;;;;;;;;;;;;21.44;60.33;99677.62;4431829;32;20048;-93
2022/08/29 05:13:09;;;;;;;;;;;;;;;21.44;60.33;99672.34;4431415;32;19981;-93
2022/08/29 05:15:40;;;;;;;;;;;;;;;21.49;60.34;99670.16;4431021;32;20004;-93
2022/08/29 05:18:05;;;;;;;;;;;;;;;21.48;60.33;99668.50;4431032;32;20368;-94
2022/08/29 05:20:31;;;;;;;;;;;;;;;21.58;60.35;99673.94;4431226;32;19997;-93
2022/08/29 05:22:56;;;;;;;;;;;;;;;21.62;60.34;99681.50;4445136;32;19981;-94
2022/08/29 05:25:21;;;;;;;;;;;;;;;21.64;60.34;99681.37;4432165;32;19984;-94
2022/08/29 05:27:47;;;;;;;;;;;;;;;21.72;60.36;99671.00;4432340;32;19993;-94
2022/08/29 05:30:12;;;;;;;;;;;;;;;21.67;60.35;99681.13;4431904;32;19981;-95
2022/08/29 05:32:37;;;;;;;;;;;;;;;21.78;60.35;99686.44;4431841;32;20340;-94
2022/08/29 05:35:03;;;;;;;;;;;;;;;21.81;60.36;99680.91;4431459;32;20373;-95
2022/08/29 05:37:28;;;;;;;;;;;;;;;21.88;60.36;99684.72;4431736;32;20012;-93
2022/08/29 05:39:54;;;;;;;;;;;;;;;21.72;60.36;99684.25;4431226;32;19992;-94
2022/08/29 05:42:21;;;;;;;;;;;;;;;21.76;60.35;99685.69;4447827;32;19980;-95
2022/08/29 05:44:46;;;;;;;;;;;;;;;21.95;60.35;99679.78;4431260;32;20028;-93
2022/08/29 05:47:12;;;;;;;;;;;;;;;21.86;60.35;99689.31;4430550;32;20034;-94
2022/08/29 05:49:38;;;;;;;;;;;;;;;22.05;60.37;99691.38;4443077;32;20078;-93
2022/08/29 05:52:03;;;;;;;;;;;;;;;22.16;60.37;99686.03;4414820;32;19989;-93
2022/08/29 05:54:30;;;;;;;;;;;;;;;22.34;60.38;99695.16;4415202;32;19994;-94
2022/08/29 05:56:56;;;;;;;;;;;;;;;22.58;60.38;99696.75;4415086;32;19997;-93
2022/08/29 05:59:21;;;;;;;;;;;;;;;22.65;60.41;99698.78;4415444;32;20015;-94
2022/08/29 06:01:46;;;;;;;;;;;;;;;22.74;60.41;99697.19;4440495;32;19992;-91
2022/08/29 06:04:11;;;;;;;;;;;;;;;22.75;60.40;99698.03;4415623;32;19996;-91
2022/08/29 06:06:38;;;;;;;;;;;;;;;22.66;60.40;99689.00;4415470;32;20344;-95
2022/08/29 06:09:03;;;;;;;;;;;;;;;22.70;60.39;99690.44;4415626;32;20061;-94
2022/08/29 06:11:29;;;;;;;;;;;;;;;22.59;60.40;99704.59;4415027;32;19993;-96
2022/08/29 06:13:54;;;;;;;;;;;;;;;22.45;60.38;99699.56;4414519;32;20305;-95
2022/08/29 06:16:20;;;;;;;;;;;;;;;22.52;60.39;99703.44;4414954;32;20009;-96
2022/08/29 06:18:45;;;;;;;;;;;;;;;22.70;60.40;99709.00;4415252;32;20011;-95
2022/08/29 06:21:10;;;;;;;;;;;;;;;22.78;60.40;99703.06;4415398;32;20019;-94
2022/08/29 06:23:36;;;;;;;;;;;;;;;22.62;60.39;99709.66;4452657;32;19962;-93
2022/08/29 06:26:01;;;;;;;;;;;;;;;22.77;60.40;99710.19;4418377;32;20001;-94
2022/08/29 06:28:27;;;;;;;;;;;;;;;22.59;60.40;99717.00;4428804;32;19969;-95
2022/08/29 06:30:52;;;;;;;;;;;;;;;22.84;60.41;99715.84;4414556;32;19996;-94
2022/08/29 06:33:18;;;;;;;;;;;;;;;22.84;60.40;99716.69;4414299;32;19985;-95
2022/08/29 06:35:43;;;;;;;;;;;;;;;23.00;60.42;99718.09;4439733;32;20073;-96
2022/08/29 06:38:08;;;;;;;;;;;;;;;23.21;60.43;99718.94;4415664;32;20027;-95
2022/08/29 06:40:33;;;;;;;;;;;;;;;23.19;60.42;99728.84;4413128;32;22548;-93
2022/08/29 06:42:58;;;;;;;;;;;;;;;23.28;60.42;99733.38;4413770;32;30441;-94
2022/08/29 06:45:24;;;;;;;;;;;;;;;23.39;60.43;99729.78;4427511;32;19993;-93
2022/08/29 06:47:49;;;;;;;;;;;;;;;23.40;60.43;99732.31;4414129;32;20008;-93
2022/08/29 06:50:15;;;;;;;;;;;;;;;23.57;60.44;99739.72;4418435;32;19989;-94
2022/08/29 06:52:40;;;;;;;;;;;;;;;23.78;60.45;99742.34;4429972;32;20016;-93
2022/08/29 06:55:10;;;;;;;;;;;;;;;24.03;60.46;99751.66;4429463;32;20357;-96
2022/08/29 06:57:35;;;;;;;;;;;;;;;24.26;60.48;99741.66;4430501;32;20049;-95
2022/08/29 07:00:01;;;;;;;;;;;;;;;24.38;60.49;99751.25;4442937;32;19988;-95
2022/08/29 07:02:29;;;;;;;;;;;;;;;24.39;60.49;99741.44;4430121;32;19986;-96
2022/08/29 07:04:54;;;;;;;;;;;;;;;24.47;60.49;99744.25;4430056;32;20015;-95
2022/08/29 07:07:26;;;;;;;;;;;;;;;24.36;60.48;99744.34;4430065;32;20237;-95
2022/08/29 07:09:51;;;;;;;;;;;;;;;24.57;60.49;99746.91;4429747;32;19981;-94
2022/08/29 07:12:16;;;;;;;;;;;;;;;24.53;60.50;99749.00;4430447;32;20037;-95
2022/08/29 07:14:45;;;;;;;;;;;;;;;24.48;60.49;99748.59;4429484;32;20008;-94
2022/08/29 07:17:10;;;;;;;;;;;;;;;24.35;60.48;99751.50;4429842;32;19984;-93
2022/08/29 07:19:50;;;;;;;;;;;;;;;24.37;60.48;99748.69;4429303;32;20598;-92
2022/08/29 07:22:41;;;;;;;;;;;;;;;24.43;60.49;99743.69;4429541;32;19996;-91
2022/08/29 07:25:07;;;;;;;;;;;;;;;24.50;60.49;99749.28;4441529;32;20676;-94
2022/08/29 07:27:32;;;;;;;;;;;;;;;24.49;60.49;99740.47;4428724;32;19991;-94
2022/08/29 07:29:59;;;;;;;;;;;;;;;24.72;60.51;99745.53;4428533;32;20026;-91
2022/08/29 07:32:24;;;;;;;;;;;;;;;24.88;60.51;99747.66;4428975;32;20383;-92
2022/08/29 07:34:50;;;;;;;;;;;;;;;25.02;60.52;99742.75;4429026;32;20001;-92
2022/08/29 07:37:41;;;;;;;;;;;;;;;25.08;60.51;99738.72;4454598;32;20227;-93
2022/08/29 07:40:07;;;;;;;;;;;;;;;25.08;60.53;99741.37;4439865;32;20620;-93
2022/08/29 07:43:06;;;;;;;;;;;;;;;25.19;60.52;99745.69;4438246;32;20012;-91
2022/08/29 07:45:31;;;;;;;;;;;;;;;25.32;60.54;99740.91;4441146;32;19993;-92
2022/08/29 07:47:57;;;;;;;;;;;;;;;25.38;60.53;99745.66;4440131;32;20003;-92
2022/08/29 07:50:22;;;;;;;;;;;;;;;25.45;60.54;99743.25;4445955;32;20045;-92
2022/08/29 07:52:48;;;;;;;;;;;;;;;25.64;60.56;99743.22;4443776;32;19984;-93
2022/08/29 07:55:13;;;;;;;;;;;;;;;25.50;60.54;99739.16;4443584;32;21028;-93
2022/08/29 07:57:41;;;;;;;;;;;;;;;25.65;60.55;99745.72;4443992;32;20024;-93
2022/08/29 08:00:10;;;;;;;;;;;;;;;25.86;60.56;99742.87;4454271;32;19987;-93
2022/08/29 08:02:35;;;;;;;;;;;;;;;26.00;60.57;99750.37;4446774;32;20042;-94
2022/08/29 08:05:01;;;;;;;;;;;;;;;26.03;60.58;99746.59;4444807;32;19993;-92
2022/08/29 08:07:28;;;;;;;;;;;;;;;25.85;60.56;99741.19;4443855;32;19988;-90
2022/08/29 08:09:53;;;;;;;;;;;;;;;26.04;60.58;99748.28;4456770;32;20000;-93
2022/08/29 08:12:19;;;;;;;;;;;;;;;26.25;60.58;99751.50;4443694;32;20037;-93
2022/08/29 08:14:44;;;;;;;;;;;;;;;26.46;60.59;99755.78;4470887;32;19976;-92
2022/08/29 08:17:10;;;;;;;;;;;;;;;26.44;60.60;99761.25;4444478;32;19985;-94
2022/08/29 08:19:36;;;;;;;;;;;;;;;26.45;60.60;99748.75;4444492;32;19977;-93
2022/08/29 08:22:06;;;;;;;;;;;;;;;26.55;60.60;99752.22;4461477;32;20037;-96
2022/08/29 08:24:52;;;;;;;;;;;;;;;26.46;60.59;99756.63;4482067;32;19949;-96
2022/08/29 08:27:34;;;;;;;;;;;;;;;26.49;60.60;99761.66;4453915;32;19976;-96
2022/08/29 08:30:27;;;;;;;;;;;;;;;26.58;60.60;99750.09;4483335;32;19950;-96
2022/08/29 08:33:01;;;;;;;;;;;;;;;26.59;60.60;99754.44;4484243;32;19972;-96
2022/08/29 08:35:48;;;;;;;;;;;;;;;26.60;60.60;99761.44;4438574;32;20034;-96
2022/08/29 08:38:20;;;;;;;;;;;;;;;26.87;60.61;99757.87;4423352;32;20002;-96
2022/08/29 08:40:55;;;;;;;;;;;;;;;27.02;60.62;99760.03;4450668;32;19970;-96
2022/08/29 08:43:54;;;;;;;;;;;;;;;27.20;60.64;99753.66;4450163;32;19962;-96
2022/08/29 08:46:39;;;;;;;;;;;;;;;27.35;60.64;99753.94;4433920;32;20000;-96
2022/08/29 08:49:37;;;;;;;;;;;;;;;27.41;60.65;99752.47;4437907;32;19953;-96
2022/08/29 08:52:16;;;;;;;;;;;;;;;27.29;60.64;99754.56;4436928;32;19977;-96
2022/08/29 08:55:17;;;;;;;;;;;;;;;27.56;60.65;99750.91;4451569;32;19981;-96
2022/08/29 08:58:05;;;;;;;;;;;;;;;27.65;60.65;99762.50;4436087;32;19991;-96
2022/08/29 09:00:49;;;;;;;;;;;;;;;27.53;60.65;99759.25;4435156;32;19995;-96
2022/08/29 09:03:45;;;;;;;;;;;;;;;27.75;60.67;99750.72;4436932;32;19964;-96
2022/08/29 09:06:14;;;;;;;;;;;;;;;27.67;60.65;99761.34;4457799;32;20042;-95
2022/08/29 09:08:54;;;;;;;;;;;;;;;27.80;60.66;99756.44;4456102;32;19962;-96
2022/08/29 09:11:27;;;;;;;;;;;;;;;27.74;60.66;99754.41;4453410;32;19967;-96
2022/08/29 09:13:59;;;;;;;;;;;;;;;27.87;60.67;99751.28;4455547;32;19991;-96
2022/08/29 09:16:32;;;;;;;;;;;;;;;27.90;60.67;99744.75;4480804;32;19957;-96
2022/08/29 09:19:05;;;;;;;;;;;;;;;27.92;60.68;99748.09;4464087;32;19961;-96
2022/08/29 09:21:37;;;;;;;;;;;;;;;27.94;60.68;99746.12;4466226;32;19981;-96
2022/08/29 09:24:04;;;;;;;;;;;;;;;27.83;60.67;99742.72;4462251;32;19965;-94
2022/08/29 09:26:29;;;;;;;;;;;;;;;27.69;60.66;99746.03;4445819;32;19997;-94
2022/08/29 09:28:56;;;;;;;;;;;;;;;27.86;60.68;99744.25;4445659;32;20011;-95
2022/08/29 09:31:21;;;;;;;;;;;;;;;28.16;60.69;99747.41;4446392;32;19980;-93
2022/08/29 09:34:00;;;;;;;;;;;;;;;28.16;60.69;99745.56;4458854;32;20022;-94
2022/08/29 09:36:32;;;;;;;;;;;;;;;28.15;60.69;99746.53;4456616;32;19983;-94
2022/08/29 09:39:16;;;;;;;;;;;;;;;28.10;60.69;99752.38;4449261;32;20376;-94
2022/08/29 09:41:42;;;;;;;;;;;;;;;28.27;60.69;99742.59;4472696;32;19997;-95
2022/08/29 09:44:08;;;;;;;;;;;;;;;28.53;60.71;99747.84;4445176;32;19995;-94
2022/08/29 09:46:33;;;;;;;;;;;;;;;28.69;60.71;99747.06;4445157;32;19993;-92
2022/08/29 09:48:58;;;;;;;;;;;;;;;28.76;60.71;99750.75;4444618;32;20004;-93
2022/08/29 09:51:27;;;;;;;;;;;;;;;29.06;60.73;99743.09;4471555;32;19991;-92
2022/08/29 09:53:54;;;;;;;;;;;;;;;29.02;60.72;99750.63;4444799;32;19988;-92
2022/08/29 09:56:23;;;;;;;;;;;;;;;29.09;60.73;99746.25;4458278;32;20042;-92
2022/08/29 09:59:00;;;;;;;;;;;;;;;28.85;60.72;99751.56;4444799;32;19997;-91
2022/08/29 10:01:25;;;;;;;;;;;;;;;29.03;60.73;99750.44;4444723;32;20357;-92
2022/08/29 10:03:53;;;;;;;;;;;;;;;29.24;60.74;99747.25;4444454;32;19988;-92
2022/08/29 10:06:23;;;;;;;;;;;;;;;29.20;60.74;99753.97;4444985;32;20580;-92
2022/08/29 10:09:03;;;;;;;;;;;;;;;29.10;60.74;99750.63;4444760;32;20282;-93
2022/08/29 10:11:33;;;;;;;;;;;;;;;29.06;60.73;99761.84;4456889;32;20019;-90
2022/08/29 10:14:02;;;;;;;;;;;;;;;29.16;60.74;99754.47;4457245;32;20325;-92
2022/08/29 10:16:39;;;;;;;;;;;;;;;29.01;60.74;99751.63;4456597;32;19985;-92
2022/08/29 10:19:12;;;;;;;;;;;;;;;28.99;60.73;99759.00;4444587;32;20064;-92
2022/08/29 10:21:47;;;;;;;;;;;;;;;29.23;60.74;99750.13;4457541;32;19977;-92
2022/08/29 10:24:12;;;;;;;;;;;;;;;29.40;60.74;99751.78;4444461;32;19973;-92
2022/08/29 10:26:53;;;;;;;;;;;;;;;29.52;60.76;99753.12;4456924;32;20017;-92
2022/08/29 10:29:18;;;;;;;;;;;;;;;29.62;60.76;99761.84;4457559;32;20388;-92
2022/08/29 10:31:53;;;;;;;;;;;;;;;29.69;60.76;99753.09;4457470;32;20067;-92
2022/08/29 10:34:19;;;;;;;;;;;;;;;29.99;60.78;99757.69;4457526;32;19969;-92
2022/08/29 10:36:48;;;;;;;;;;;;;;;30.00;60.78;99758.50;4457353;32;20009;-92
2022/08/29 10:39:15;;;;;;;;;;;;;;;29.97;60.79;99753.50;4444392;32;20014;-90
2022/08/29 10:41:43;;;;;;;;;;;;;;;30.28;60.80;99745.50;4443458;32;20049;-89
2022/08/29 10:44:27;;;;;;;;;;;;;;;30.32;60.80;99746.84;4456686;32;19969;-92
2022/08/29 10:47:14;;;;;;;;;;;;;;;30.20;60.79;99749.91;4471641;32;20297;-92
2022/08/29 10:49:47;;;;;;;;;;;;;;;30.00;60.78;99740.56;4444464;32;19988;-91
2022/08/29 10:52:25;;;;;;;;;;;;;;;29.86;60.78;99744.81;4457343;32;19976;-93
2022/08/29 10:55:06;;;;;;;;;;;;;;;30.09;60.79;99744.94;4457747;32;20356;-92
2022/08/29 10:57:38;;;;;;;;;;;;;;;30.19;60.79;99737.50;4445054;32;20005;-92
2022/08/29 11:00:09;;;;;;;;;;;;;;;30.51;60.80;99722.19;4457418;32;19989;-93
2022/08/29 11:02:34;;;;;;;;;;;;;;;30.48;60.81;99734.13;4458229;32;19969;-91
2022/08/29 11:05:01;;;;;;;;;;;;;;;30.40;60.81;99727.97;4471193;32;20261;-92
2022/08/29 11:07:27;;;;;;;;;;;;;;;30.37;60.81;99726.50;4457145;32;19981;-92
2022/08/29 11:10:07;;;;;;;;;;;;;;;30.55;60.81;99719.00;4457016;32;20007;-92
2022/08/29 11:12:51;;;;;;;;;;;;;;;30.46;60.81;99725.41;4464262;32;19960;-92
2022/08/29 11:15:28;;;;;;;;;;;;;;;30.33;60.80;99727.88;4474986;32;19983;-92
2022/08/29 11:18:15;;;;;;;;;;;;;;;30.53;60.82;99728.25;4457486;32;19988;-91
2022/08/29 11:20:45;;;;;;;;;;;;;;;30.29;60.81;99720.34;4444137;32;20631;-92
2022/08/29 11:23:17;;;;;;;;;;;;;;;30.42;60.81;99724.09;4444050;32;19989;-92
2022/08/29 11:25:42;;;;;;;;;;;;;;;30.34;60.80;99717.97;4471244;32;20101;-93
2022/08/29 11:28:10;;;;;;;;;;;;;;;30.40;60.81;99722.62;4442291;32;20023;-92
2022/08/29 11:30:39;;;;;;;;;;;;;;;30.54;60.82;99717.31;4456920;32;19984;-92
2022/08/29 11:33:07;;;;;;;;;;;;;;;30.90;60.83;99718.59;4456806;32;19988;-92
2022/08/29 11:35:51;;;;;;;;;;;;;;;31.11;60.84;99708.81;4443911;32;19973;-92
2022/08/29 11:38:16;;;;;;;;;;;;;;;30.78;60.83;99719.03;4456660;32;20403;-91
2022/08/29 11:40:57;;;;;;;;;;;;;;;30.71;60.82;99709.16;4456913;32;19996;-92
2022/08/29 11:43:27;;;;;;;;;;;;;;;30.67;60.82;99714.06;4456783;32;20336;-93
2022/08/29 11:45:55;;;;;;;;;;;;;;;30.67;60.82;99706.00;4456778;32;19983;-92
2022/08/29 11:48:39;;;;;;;;;;;;;;;30.71;60.83;99706.47;4457088;32;20052;-93
2022/08/29 11:51:25;;;;;;;;;;;;;;;30.83;60.82;99702.38;4442958;32;19989;-91
2022/08/29 11:53:50;;;;;;;;;;;;;;;30.80;60.83;99710.78;4470204;32;19977;-93
2022/08/29 11:56:15;;;;;;;;;;;;;;;30.73;60.83;99712.50;4443368;32;30431;-92
2022/08/29 11:58:42;;;;;;;;;;;;;;;30.63;60.82;99710.06;4428675;32;877158;-92
2022/08/29 12:01:11;;;;;;;;;;;;;;;30.58;60.81;99709.75;4443794;32;20007;-93
2022/08/29 12:03:36;;;;;;;;;;;;;;;30.73;60.83;99702.59;4443923;32;20397;-93
2022/08/29 12:06:18;;;;;;;;;;;;;;;30.84;60.84;99699.50;4471047;32;19961;-92
2022/08/29 12:08:52;;;;;;;;;;;;;;;30.87;60.84;99708.22;4444011;32;19993;-92
2022/08/29 12:11:18;;;;;;;;;;;;;;;30.89;60.83;99701.63;4456867;32;19988;-93
2022/08/29 12:13:43;;;;;;;;;;;;;;;31.07;60.84;99698.63;4443914;32;19991;-92
2022/08/29 12:16:09;;;;;;;;;;;;;;;31.05;60.84;99695.28;4456833;32;20269;-92
2022/08/29 12:18:34;;;;;;;;;;;;;;;31.00;60.85;99682.41;4456752;32;20026;-93
2022/08/29 12:21:01;;;;;;;;;;;;;;;31.04;60.84;99693.63;4456779;32;19985;-92
2022/08/29 12:23:27;;;;;;;;;;;;;;;31.04;60.84;99690.94;4443859;32;20040;-91
2022/08/29 12:25:52;;;;;;;;;;;;;;;30.98;60.83;99695.16;4456558;32;20358;-92
2022/08/29 12:28:22;;;;;;;;;;;;;;;30.87;60.83;99692.09;4456500;32;20024;-92
2022/08/29 12:30:57;;;;;;;;;;;;;;;30.85;60.84;99690.41;4456675;32;20001;-92
2022/08/29 12:33:41;;;;;;;;;;;;;;;30.63;60.82;99685.88;4456495;32;19981;-91
2022/08/29 12:36:15;;;;;;;;;;;;;;;30.83;60.84;99676.31;4456327;32;20112;-92
2022/08/29 12:38:59;;;;;;;;;;;;;;;31.07;60.84;99674.44;4456896;32;20004;-92
2022/08/29 12:41:45;;;;;;;;;;;;;;;31.22;60.85;99671.78;4458630;32;20038;-92
2022/08/29 12:44:12;;;;;;;;;;;;;;;31.57;60.87;99671.06;4458677;32;20040;-92
2022/08/29 12:46:39;;;;;;;;;;;;;;;31.51;60.87;99670.97;4445552;32;19981;-92
2022/08/29 12:49:16;;;;;;;;;;;;;;;31.58;60.87;99669.19;4447634;32;19965;-92
2022/08/29 12:51:42;;;;;;;;;;;;;;;31.49;60.87;99664.94;4465321;32;19985;-93
2022/08/29 12:54:07;;;;;;;;;;;;;;;31.37;60.86;99664.56;4445686;32;20328;-94
2022/08/29 12:56:33;;;;;;;;;;;;;;;31.54;60.87;99660.69;4445026;32;20009;-94
2022/08/29 12:58:59;;;;;;;;;;;;;;;31.76;60.88;99656.25;4444058;32;20003;-92
2022/08/29 13:01:24;;;;;;;;;;;;;;;31.71;60.88;99648.72;4444051;32;20024;-91
2022/08/29 13:03:55;;;;;;;;;;;;;;;31.79;60.87;99649.63;4472228;32;19981;-90